sensor_id;sensor_type;location;lat;lon;timestamp;pressure;altitude;pressure_sealevel;temperature;humidity
53300;BME280;39187;48.476;8.310;2024-01-30T00:02:14;92404.88;;;7.49;53.74
53300;BME280;39187;48.476;8.310;2024-01-30T00:04:40;92412.94;;;7.63;52.84
53300;BME280;39187;48.476;8.310;2024-01-30T00:07:06;92406.06;;;7.58;53.13
53300;BME280;39187;48.476;8.310;2024-01-30T00:09:31;92408.31;;;7.56;53.68
53300;BME280;39187;48.476;8.310;2024-01-30T00:11:57;92414.44;;;7.64;53.60
53300;BME280;39187;48.476;8.310;2024-01-30T00:14:23;92415.84;;;7.51;53.51
53300;BME280;39187;48.476;8.310;2024-01-30T00:16:48;92413.41;;;7.76;52.92
53300;BME280;39187;48.476;8.310;2024-01-30T00:19:14;92418.63;;;7.65;53.66
53300;BME280;39187;48.476;8.310;2024-01-30T00:21:40;92415.97;;;7.65;53.65
53300;BME280;39187;48.476;8.310;2024-01-30T00:24:06;92408.63;;;7.48;53.87
53300;BME280;39187;48.476;8.310;2024-01-30T00:26:31;92414.84;;;7.66;53.25
53300;BME280;39187;48.476;8.310;2024-01-30T00:28:57;92418.69;;;7.72;53.50
53300;BME280;39187;48.476;8.310;2024-01-30T00:31:23;92423.22;;;7.68;53.14
53300;BME280;39187;48.476;8.310;2024-01-30T00:33:48;92420.56;;;7.68;53.22
53300;BME280;39187;48.476;8.310;2024-01-30T00:36:14;92424.00;;;7.72;53.41
53300;BME280;39187;48.476;8.310;2024-01-30T00:38:39;92423.91;;;7.61;53.21
53300;BME280;39187;48.476;8.310;2024-01-30T00:41:07;92421.28;;;7.69;53.44
53300;BME280;39187;48.476;8.310;2024-01-30T00:43:33;92421.22;;;7.58;53.95
53300;BME280;39187;48.476;8.310;2024-01-30T00:45:59;92425.13;;;7.71;53.73
53300;BME280;39187;48.476;8.310;2024-01-30T00:48:25;92426.16;;;7.63;53.66
53300;BME280;39187;48.476;8.310;2024-01-30T00:50:50;92423.16;;;7.64;53.29
53300;BME280;39187;48.476;8.310;2024-01-30T00:53:16;92427.06;;;7.74;53.26
53300;BME280;39187;48.476;8.310;2024-01-30T00:55:42;92425.59;;;7.80;53.32
53300;BME280;39187;48.476;8.310;2024-01-30T00:58:07;92422.31;;;7.53;54.10
53300;BME280;39187;48.476;8.310;2024-01-30T01:00:33;92420.09;;;7.62;53.99
53300;BME280;39187;48.476;8.310;2024-01-30T01:02:59;92414.03;;;7.62;53.89
53300;BME280;39187;48.476;8.310;2024-01-30T01:05:24;92419.47;;;7.73;53.17
53300;BME280;39187;48.476;8.310;2024-01-30T01:07:50;92419.75;;;7.64;53.37
53300;BME280;39187;48.476;8.310;2024-01-30T01:10:16;92412.69;;;7.38;54.13
53300;BME280;39187;48.476;8.310;2024-01-30T01:12:42;92421.13;;;7.51;54.05
53300;BME280;39187;48.476;8.310;2024-01-30T01:15:08;92421.88;;;7.48;53.78
53300;BME280;39187;48.476;8.310;2024-01-30T01:17:37;92417.69;;;7.47;54.11
53300;BME280;39187;48.476;8.310;2024-01-30T01:20:04;92415.00;;;7.43;53.53
53300;BME280;39187;48.476;8.310;2024-01-30T01:22:33;92420.34;;;7.47;53.55
53300;BME280;39187;48.476;8.310;2024-01-30T01:25:00;92420.78;;;7.52;53.95
53300;BME280;39187;48.476;8.310;2024-01-30T01:27:25;92415.16;;;7.57;53.56
53300;BME280;39187;48.476;8.310;2024-01-30T01:29:52;92410.19;;;7.52;53.52
53300;BME280;39187;48.476;8.310;2024-01-30T01:32:17;92407.53;;;7.52;53.39
53300;BME280;39187;48.476;8.310;2024-01-30T01:34:43;92411.41;;;7.25;54.54
53300;BME280;39187;48.476;8.310;2024-01-30T01:37:09;92410.78;;;7.35;53.84
53300;BME280;39187;48.476;8.310;2024-01-30T01:39:34;92414.88;;;7.29;54.36
53300;BME280;39187;48.476;8.310;2024-01-30T01:42:00;92415.25;;;7.28;54.83
53300;BME280;39187;48.476;8.310;2024-01-30T01:44:26;92410.72;;;7.32;54.40
53300;BME280;39187;48.476;8.310;2024-01-30T01:46:52;92414.06;;;7.25;54.88
53300;BME280;39187;48.476;8.310;2024-01-30T01:49:19;92412.16;;;7.22;54.39
53300;BME280;39187;48.476;8.310;2024-01-30T01:51:46;92404.53;;;7.17;54.48
53300;BME280;39187;48.476;8.310;2024-01-30T01:54:13;92404.75;;;7.38;54.42
53300;BME280;39187;48.476;8.310;2024-01-30T01:56:39;92400.03;;;7.21;54.62
53300;BME280;39187;48.476;8.310;2024-01-30T01:59:07;92402.69;;;7.21;55.13
53300;BME280;39187;48.476;8.310;2024-01-30T02:01:34;92397.53;;;7.35;54.03
53300;BME280;39187;48.476;8.310;2024-01-30T02:04:00;92397.91;;;7.34;54.26
53300;BME280;39187;48.476;8.310;2024-01-30T02:06:26;92400.50;;;7.30;54.71
53300;BME280;39187;48.476;8.310;2024-01-30T02:08:53;92396.69;;;7.28;54.52
53300;BME280;39187;48.476;8.310;2024-01-30T02:11:20;92392.53;;;6.93;55.97
53300;BME280;39187;48.476;8.310;2024-01-30T02:13:45;92402.97;;;7.12;55.75
53300;BME280;39187;48.476;8.310;2024-01-30T02:16:11;92399.78;;;6.96;55.74
53300;BME280;39187;48.476;8.310;2024-01-30T02:18:36;92397.41;;;6.88;55.94
53300;BME280;39187;48.476;8.310;2024-01-30T02:21:07;92400.63;;;7.04;56.68
53300;BME280;39187;48.476;8.310;2024-01-30T02:23:33;92402.28;;;6.85;57.10
53300;BME280;39187;48.476;8.310;2024-01-30T02:26:00;92400.63;;;7.04;56.92
53300;BME280;39187;48.476;8.310;2024-01-30T02:28:25;92403.38;;;7.14;55.95
53300;BME280;39187;48.476;8.310;2024-01-30T02:30:52;92411.25;;;7.11;56.76
53300;BME280;39187;48.476;8.310;2024-01-30T02:33:18;92401.56;;;6.89;56.55
53300;BME280;39187;48.476;8.310;2024-01-30T02:35:43;92412.69;;;7.01;57.09
53300;BME280;39187;48.476;8.310;2024-01-30T02:38:09;92402.41;;;6.96;57.38
53300;BME280;39187;48.476;8.310;2024-01-30T02:40:34;92393.56;;;6.85;57.11
53300;BME280;39187;48.476;8.310;2024-01-30T02:43:02;92399.50;;;6.71;58.06
53300;BME280;39187;48.476;8.310;2024-01-30T02:45:27;92402.25;;;6.82;56.90
53300;BME280;39187;48.476;8.310;2024-01-30T02:47:53;92402.41;;;6.66;57.95
53300;BME280;39187;48.476;8.310;2024-01-30T02:50:19;92398.94;;;6.59;57.20
53300;BME280;39187;48.476;8.310;2024-01-30T02:52:44;92404.63;;;6.61;56.94
53300;BME280;39187;48.476;8.310;2024-01-30T02:55:10;92397.72;;;6.82;56.88
53300;BME280;39187;48.476;8.310;2024-01-30T02:57:36;92401.47;;;6.78;56.44
53300;BME280;39187;48.476;8.310;2024-01-30T03:00:02;92397.59;;;6.72;56.50
53300;BME280;39187;48.476;8.310;2024-01-30T03:02:29;92400.03;;;6.88;56.52
53300;BME280;39187;48.476;8.310;2024-01-30T03:04:54;92400.94;;;6.69;56.73
53300;BME280;39187;48.476;8.310;2024-01-30T03:07:20;92401.56;;;6.89;56.46
53300;BME280;39187;48.476;8.310;2024-01-30T03:09:45;92407.94;;;6.84;55.52
53300;BME280;39187;48.476;8.310;2024-01-30T03:12:11;92406.53;;;6.94;55.79
53300;BME280;39187;48.476;8.310;2024-01-30T03:14:36;92400.47;;;6.93;55.86
53300;BME280;39187;48.476;8.310;2024-01-30T03:17:03;92397.16;;;7.00;54.71
53300;BME280;39187;48.476;8.310;2024-01-30T03:19:28;92400.28;;;7.09;54.67
53300;BME280;39187;48.476;8.310;2024-01-30T03:21:54;92406.34;;;7.09;55.12
53300;BME280;39187;48.476;8.310;2024-01-30T03:24:19;92409.28;;;7.01;54.20
53300;BME280;39187;48.476;8.310;2024-01-30T03:26:45;92408.91;;;7.02;54.27
53300;BME280;39187;48.476;8.310;2024-01-30T03:29:10;92411.16;;;7.00;54.02
53300;BME280;39187;48.476;8.310;2024-01-30T03:31:36;92416.84;;;7.02;55.05
53300;BME280;39187;48.476;8.310;2024-01-30T03:34:02;92412.63;;;6.98;54.16
53300;BME280;39187;48.476;8.310;2024-01-30T03:36:28;92410.19;;;6.82;54.27
53300;BME280;39187;48.476;8.310;2024-01-30T03:38:54;92410.63;;;6.88;53.52
53300;BME280;39187;48.476;8.310;2024-01-30T03:41:19;92409.59;;;6.66;53.80
53300;BME280;39187;48.476;8.310;2024-01-30T03:43:46;92397.81;;;6.60;54.09
53300;BME280;39187;48.476;8.310;2024-01-30T03:46:12;92403.63;;;6.72;52.81
53300;BME280;39187;48.476;8.310;2024-01-30T03:48:38;92401.13;;;6.53;51.23
53300;BME280;39187;48.476;8.310;2024-01-30T03:51:05;92406.88;;;6.89;51.34
53300;BME280;39187;48.476;8.310;2024-01-30T03:53:30;92407.00;;;6.69;50.72
53300;BME280;39187;48.476;8.310;2024-01-30T03:55:56;92404.56;;;6.87;49.67
53300;BME280;39187;48.476;8.310;2024-01-30T03:58:22;92408.78;;;6.92;50.19
53300;BME280;39187;48.476;8.310;2024-01-30T04:00:47;92405.41;;;6.95;49.01
53300;BME280;39187;48.476;8.310;2024-01-30T04:03:14;92410.03;;;7.01;49.44
53300;BME280;39187;48.476;8.310;2024-01-30T04:05:41;92407.19;;;6.83;49.39
53300;BME280;39187;48.476;8.310;2024-01-30T04:08:07;92408.34;;;6.86;50.36
53300;BME280;39187;48.476;8.310;2024-01-30T04:10:33;92411.63;;;6.76;50.08
53300;BME280;39187;48.476;8.310;2024-01-30T04:12:58;92419.59;;;6.79;50.79
53300;BME280;39187;48.476;8.310;2024-01-30T04:15:25;92402.94;;;6.79;50.59
53300;BME280;39187;48.476;8.310;2024-01-30T04:17:50;92413.84;;;6.74;50.99
53300;BME280;39187;48.476;8.310;2024-01-30T04:20:16;92396.00;;;6.67;51.03
53300;BME280;39187;48.476;8.310;2024-01-30T04:22:44;92399.88;;;6.73;51.68
53300;BME280;39187;48.476;8.310;2024-01-30T04:25:10;92403.44;;;6.88;51.40
53300;BME280;39187;48.476;8.310;2024-01-30T04:27:36;92399.59;;;6.82;51.71
53300;BME280;39187;48.476;8.310;2024-01-30T04:30:01;92399.16;;;6.76;52.21
53300;BME280;39187;48.476;8.310;2024-01-30T04:32:27;92400.31;;;6.79;52.40
53300;BME280;39187;48.476;8.310;2024-01-30T04:34:52;92397.84;;;6.93;52.08
53300;BME280;39187;48.476;8.310;2024-01-30T04:37:18;92398.84;;;6.81;52.48
53300;BME280;39187;48.476;8.310;2024-01-30T04:39:43;92402.66;;;6.84;52.60
53300;BME280;39187;48.476;8.310;2024-01-30T04:42:09;92396.19;;;6.81;52.56
53300;BME280;39187;48.476;8.310;2024-01-30T04:44:34;92397.97;;;6.70;53.19
53300;BME280;39187;48.476;8.310;2024-01-30T04:47:00;92402.13;;;6.71;53.27
53300;BME280;39187;48.476;8.310;2024-01-30T04:49:27;92397.97;;;6.70;53.17
53300;BME280;39187;48.476;8.310;2024-01-30T04:51:53;92394.03;;;6.61;52.98
53300;BME280;39187;48.476;8.310;2024-01-30T04:54:18;92394.53;;;6.70;53.23
53300;BME280;39187;48.476;8.310;2024-01-30T04:56:44;92391.50;;;6.68;53.66
53300;BME280;39187;48.476;8.310;2024-01-30T04:59:09;92388.38;;;6.59;53.57
53300;BME280;39187;48.476;8.310;2024-01-30T05:01:35;92393.03;;;6.69;53.81
53300;BME280;39187;48.476;8.310;2024-01-30T05:04:00;92402.50;;;6.73;53.61
53300;BME280;39187;48.476;8.310;2024-01-30T05:06:27;92409.25;;;6.67;53.95
53300;BME280;39187;48.476;8.310;2024-01-30T05:08:53;92404.81;;;6.75;53.94
53300;BME280;39187;48.476;8.310;2024-01-30T05:11:18;92402.41;;;6.63;54.16
53300;BME280;39187;48.476;8.310;2024-01-30T05:13:44;92405.44;;;6.65;54.80
53300;BME280;39187;48.476;8.310;2024-01-30T05:16:09;92410.69;;;6.61;54.58
53300;BME280;39187;48.476;8.310;2024-01-30T05:18:35;92404.41;;;6.73;54.16
53300;BME280;39187;48.476;8.310;2024-01-30T05:21:02;92406.22;;;6.65;55.08
53300;BME280;39187;48.476;8.310;2024-01-30T05:23:27;92409.13;;;6.57;55.59
53300;BME280;39187;48.476;8.310;2024-01-30T05:25:53;92400.00;;;6.24;55.82
53300;BME280;39187;48.476;8.310;2024-01-30T05:28:18;92411.25;;;6.21;57.18
53300;BME280;39187;48.476;8.310;2024-01-30T05:30:44;92406.53;;;6.34;56.16
53300;BME280;39187;48.476;8.310;2024-01-30T05:33:09;92412.22;;;6.36;56.63
53300;BME280;39187;48.476;8.310;2024-01-30T05:35:37;92408.69;;;6.25;57.39
53300;BME280;39187;48.476;8.310;2024-01-30T05:38:03;92408.06;;;6.35;57.33
53300;BME280;39187;48.476;8.310;2024-01-30T05:40:30;92412.47;;;6.54;56.71
53300;BME280;39187;48.476;8.310;2024-01-30T05:42:56;92417.72;;;6.24;57.47
53300;BME280;39187;48.476;8.310;2024-01-30T05:45:21;92411.13;;;6.11;58.71
53300;BME280;39187;48.476;8.310;2024-01-30T05:47:48;92411.78;;;6.30;58.31
53300;BME280;39187;48.476;8.310;2024-01-30T05:50:14;92409.91;;;6.31;58.42
53300;BME280;39187;48.476;8.310;2024-01-30T05:52:40;92419.19;;;6.48;57.61
53300;BME280;39187;48.476;8.310;2024-01-30T05:55:06;92417.41;;;6.29;58.37
53300;BME280;39187;48.476;8.310;2024-01-30T05:57:31;92416.41;;;6.11;59.72
53300;BME280;39187;48.476;8.310;2024-01-30T05:59:57;92423.72;;;5.94;60.49
53300;BME280;39187;48.476;8.310;2024-01-30T06:02:22;92416.81;;;6.13;60.35
53300;BME280;39187;48.476;8.310;2024-01-30T06:04:48;92416.50;;;6.18;59.78
53300;BME280;39187;48.476;8.310;2024-01-30T06:07:14;92417.63;;;6.17;59.29
53300;BME280;39187;48.476;8.310;2024-01-30T06:09:39;92411.03;;;6.30;59.14
53300;BME280;39187;48.476;8.310;2024-01-30T06:12:06;92412.75;;;6.19;60.15
53300;BME280;39187;48.476;8.310;2024-01-30T06:14:32;92412.41;;;6.20;59.78
53300;BME280;39187;48.476;8.310;2024-01-30T06:16:58;92411.34;;;6.02;60.46
53300;BME280;39187;48.476;8.310;2024-01-30T06:19:24;92411.94;;;6.15;60.40
53300;BME280;39187;48.476;8.310;2024-01-30T06:21:49;92408.28;;;6.23;59.81
53300;BME280;39187;48.476;8.310;2024-01-30T06:24:15;92415.88;;;6.28;59.92
53300;BME280;39187;48.476;8.310;2024-01-30T06:26:40;92412.44;;;6.24;60.43
53300;BME280;39187;48.476;8.310;2024-01-30T06:29:06;92415.06;;;6.20;59.85
53300;BME280;39187;48.476;8.310;2024-01-30T06:31:33;92418.50;;;6.24;60.62
53300;BME280;39187;48.476;8.310;2024-01-30T06:33:58;92422.00;;;6.32;60.00
53300;BME280;39187;48.476;8.310;2024-01-30T06:36:24;92423.75;;;6.21;60.54
53300;BME280;39187;48.476;8.310;2024-01-30T06:38:49;92419.72;;;6.30;60.58
53300;BME280;39187;48.476;8.310;2024-01-30T06:41:15;92426.19;;;6.33;60.47
53300;BME280;39187;48.476;8.310;2024-01-30T06:43:41;92424.19;;;6.26;61.26
53300;BME280;39187;48.476;8.310;2024-01-30T06:46:06;92436.00;;;6.32;61.85
53300;BME280;39187;48.476;8.310;2024-01-30T06:48:32;92436.09;;;6.39;61.64
53300;BME280;39187;48.476;8.310;2024-01-30T06:50:57;92436.38;;;6.34;61.91
53300;BME280;39187;48.476;8.310;2024-01-30T06:53:23;92431.66;;;6.47;61.34
53300;BME280;39187;48.476;8.310;2024-01-30T06:55:48;92434.59;;;6.42;61.93
53300;BME280;39187;48.476;8.310;2024-01-30T06:58:14;92432.81;;;6.50;61.65
53300;BME280;39187;48.476;8.310;2024-01-30T07:00:40;92444.84;;;6.43;61.83
53300;BME280;39187;48.476;8.310;2024-01-30T07:03:05;92448.00;;;6.53;61.85
53300;BME280;39187;48.476;8.310;2024-01-30T07:05:31;92442.53;;;6.68;61.02
53300;BME280;39187;48.476;8.310;2024-01-30T07:07:57;92448.19;;;6.97;60.41
53300;BME280;39187;48.476;8.310;2024-01-30T07:10:23;92457.84;;;7.15;59.24
53300;BME280;39187;48.476;8.310;2024-01-30T07:12:48;92446.19;;;7.23;58.97
53300;BME280;39187;48.476;8.310;2024-01-30T07:15:14;92451.31;;;7.43;58.99
53300;BME280;39187;48.476;8.310;2024-01-30T07:17:42;92445.53;;;7.67;57.63
53300;BME280;39187;48.476;8.310;2024-01-30T07:20:08;92444.78;;;7.67;57.20
53300;BME280;39187;48.476;8.310;2024-01-30T07:22:34;92439.91;;;7.72;56.88
53300;BME280;39187;48.476;8.310;2024-01-30T07:25:00;92438.09;;;7.83;56.16
53300;BME280;39187;48.476;8.310;2024-01-30T07:27:25;92443.53;;;8.01;55.30
53300;BME280;39187;48.476;8.310;2024-01-30T07:29:50;92424.63;;;8.02;55.29
53300;BME280;39187;48.476;8.310;2024-01-30T07:32:16;92426.91;;;8.04;54.79
53300;BME280;39187;48.476;8.310;2024-01-30T07:34:42;92433.00;;;8.08;53.90
53300;BME280;39187;48.476;8.310;2024-01-30T07:37:07;92435.63;;;8.04;53.45
53300;BME280;39187;48.476;8.310;2024-01-30T07:39:34;92439.91;;;8.20;52.13
53300;BME280;39187;48.476;8.310;2024-01-30T07:42:00;92435.69;;;8.15;51.97
53300;BME280;39187;48.476;8.310;2024-01-30T07:44:25;92436.91;;;7.77;52.59
53300;BME280;39187;48.476;8.310;2024-01-30T07:46:51;92443.06;;;7.88;51.55
53300;BME280;39187;48.476;8.310;2024-01-30T07:49:16;92442.28;;;7.88;50.20
53300;BME280;39187;48.476;8.310;2024-01-30T07:51:42;92446.94;;;8.01;50.54
53300;BME280;39187;48.476;8.310;2024-01-30T07:54:11;92447.91;;;7.79;49.93
53300;BME280;39187;48.476;8.310;2024-01-30T07:56:36;92443.25;;;8.13;49.77
53300;BME280;39187;48.476;8.310;2024-01-30T07:59:02;92444.66;;;7.96;50.37
53300;BME280;39187;48.476;8.310;2024-01-30T08:01:27;92451.66;;;8.22;49.99
53300;BME280;39187;48.476;8.310;2024-01-30T08:03:53;92447.69;;;8.42;49.82
53300;BME280;39187;48.476;8.310;2024-01-30T08:06:18;92447.31;;;8.48;50.09
53300;BME280;39187;48.476;8.310;2024-01-30T08:08:44;92450.69;;;8.37;50.47
53300;BME280;39187;48.476;8.310;2024-01-30T08:11:10;92448.56;;;8.64;49.97
53300;BME280;39187;48.476;8.310;2024-01-30T08:13:35;92450.22;;;8.87;49.51
53300;BME280;39187;48.476;8.310;2024-01-30T08:16:01;92453.69;;;8.98;50.03
53300;BME280;39187;48.476;8.310;2024-01-30T08:18:26;92450.88;;;8.73;50.26
53300;BME280;39187;48.476;8.310;2024-01-30T08:20:52;92448.72;;;8.96;50.37
53300;BME280;39187;48.476;8.310;2024-01-30T08:23:17;92448.13;;;9.35;49.91
53300;BME280;39187;48.476;8.310;2024-01-30T08:25:43;92449.63;;;9.21;50.25
53300;BME280;39187;48.476;8.310;2024-01-30T08:28:09;92455.81;;;9.57;49.70
53300;BME280;39187;48.476;8.310;2024-01-30T08:30:34;92447.84;;;9.75;49.56
53300;BME280;39187;48.476;8.310;2024-01-30T08:33:00;92450.88;;;9.74;49.80
53300;BME280;39187;48.476;8.310;2024-01-30T08:35:26;92448.56;;;9.47;49.99
53300;BME280;39187;48.476;8.310;2024-01-30T08:37:51;92455.44;;;9.66;50.20
53300;BME280;39187;48.476;8.310;2024-01-30T08:40:17;92452.00;;;9.62;50.61
53300;BME280;39187;48.476;8.310;2024-01-30T08:42:42;92450.13;;;9.59;50.60
53300;BME280;39187;48.476;8.310;2024-01-30T08:45:08;92450.50;;;9.68;50.85
53300;BME280;39187;48.476;8.310;2024-01-30T08:47:34;92449.75;;;9.68;50.63
53300;BME280;39187;48.476;8.310;2024-01-30T08:50:00;92459.25;;;9.65;50.79
53300;BME280;39187;48.476;8.310;2024-01-30T08:52:25;92452.84;;;9.91;50.23
53300;BME280;39187;48.476;8.310;2024-01-30T08:54:51;92457.00;;;9.99;50.10
53300;BME280;39187;48.476;8.310;2024-01-30T08:57:16;92456.59;;;9.86;50.48
53300;BME280;39187;48.476;8.310;2024-01-30T08:59:41;92459.72;;;10.17;50.21
53300;BME280;39187;48.476;8.310;2024-01-30T09:02:09;92467.66;;;9.95;50.46
53300;BME280;39187;48.476;8.310;2024-01-30T09:04:35;92464.63;;;10.04;50.33
53300;BME280;39187;48.476;8.310;2024-01-30T09:07:00;92466.41;;;9.47;51.94
53300;BME280;39187;48.476;8.310;2024-01-30T09:09:26;92463.81;;;9.82;50.99
53300;BME280;39187;48.476;8.310;2024-01-30T09:11:51;92464.22;;;9.88;50.85
53300;BME280;39187;48.476;8.310;2024-01-30T09:14:17;92469.91;;;9.79;50.54
53300;BME280;39187;48.476;8.310;2024-01-30T09:16:42;92477.81;;;9.61;51.62
53300;BME280;39187;48.476;8.310;2024-01-30T09:19:08;92466.38;;;9.43;51.89
53300;BME280;39187;48.476;8.310;2024-01-30T09:21:33;92457.56;;;9.18;52.20
53300;BME280;39187;48.476;8.310;2024-01-30T09:24:03;92459.53;;;9.39;51.88
53300;BME280;39187;48.476;8.310;2024-01-30T09:26:31;92469.09;;;8.74;53.96
53300;BME280;39187;48.476;8.310;2024-01-30T09:28:57;92467.75;;;9.05;52.86
53300;BME280;39187;48.476;8.310;2024-01-30T09:31:22;92466.34;;;9.33;52.16
53300;BME280;39187;48.476;8.310;2024-01-30T09:33:48;92460.13;;;8.97;52.87
53300;BME280;39187;48.476;8.310;2024-01-30T09:36:14;92470.28;;;8.80;52.89
53300;BME280;39187;48.476;8.310;2024-01-30T09:38:45;92468.19;;;9.14;52.34
53300;BME280;39187;48.476;8.310;2024-01-30T09:41:10;92463.88;;;8.92;52.63
53300;BME280;39187;48.476;8.310;2024-01-30T09:43:37;92476.75;;;8.90;51.64
53300;BME280;39187;48.476;8.310;2024-01-30T09:46:05;92473.28;;;8.79;51.84
53300;BME280;39187;48.476;8.310;2024-01-30T09:48:32;92480.44;;;8.68;52.07
53300;BME280;39187;48.476;8.310;2024-01-30T09:50:58;92486.22;;;8.84;51.93
53300;BME280;39187;48.476;8.310;2024-01-30T09:53:23;92484.63;;;8.72;51.69
53300;BME280;39187;48.476;8.310;2024-01-30T09:55:50;92484.19;;;8.60;51.73
53300;BME280;39187;48.476;8.310;2024-01-30T09:58:16;92477.94;;;8.93;50.79
53300;BME280;39187;48.476;8.310;2024-01-30T10:00:42;92478.78;;;9.11;50.48
53300;BME280;39187;48.476;8.310;2024-01-30T10:03:08;92474.63;;;9.13;50.45
53300;BME280;39187;48.476;8.310;2024-01-30T10:05:35;92475.03;;;9.19;49.72
53300;BME280;39187;48.476;8.310;2024-01-30T10:08:06;92479.91;;;9.10;50.08
53300;BME280;39187;48.476;8.310;2024-01-30T10:10:33;92467.41;;;9.17;50.03
53300;BME280;39187;48.476;8.310;2024-01-30T10:12:59;92471.94;;;9.06;50.08
53300;BME280;39187;48.476;8.310;2024-01-30T10:15:25;92477.94;;;8.93;50.64
53300;BME280;39187;48.476;8.310;2024-01-30T10:17:51;92477.13;;;8.81;50.75
53300;BME280;39187;48.476;8.310;2024-01-30T10:20:16;92473.69;;;8.84;50.96
53300;BME280;39187;48.476;8.310;2024-01-30T10:22:44;92480.63;;;9.00;50.74
53300;BME280;39187;48.476;8.310;2024-01-30T10:25:11;92485.88;;;8.89;50.62
53300;BME280;39187;48.476;8.310;2024-01-30T10:27:36;92486.16;;;8.73;50.78
53300;BME280;39187;48.476;8.310;2024-01-30T10:30:02;92485.00;;;8.71;51.27
53300;BME280;39187;48.476;8.310;2024-01-30T10:32:29;92484.19;;;8.60;51.39
53300;BME280;39187;48.476;8.310;2024-01-30T10:34:55;92484.94;;;8.60;51.19
53300;BME280;39187;48.476;8.310;2024-01-30T10:37:25;92492.59;;;8.69;51.24
53300;BME280;39187;48.476;8.310;2024-01-30T10:39:53;92488.81;;;8.70;51.25
53300;BME280;39187;48.476;8.310;2024-01-30T10:42:26;92493.34;;;8.69;51.54
53300;BME280;39187;48.476;8.310;2024-01-30T10:45:08;92495.25;;;8.72;51.65
53300;BME280;39187;48.476;8.310;2024-01-30T10:47:35;92491.38;;;8.59;51.70
53300;BME280;39187;48.476;8.310;2024-01-30T10:50:05;92493.66;;;8.57;52.20
53300;BME280;39187;48.476;8.310;2024-01-30T10:52:31;92496.78;;;8.73;51.87
53300;BME280;39187;48.476;8.310;2024-01-30T10:54:58;92498.50;;;8.44;52.24
53300;BME280;39187;48.476;8.310;2024-01-30T10:57:27;92494.72;;;8.49;52.33
53300;BME280;39187;48.476;8.310;2024-01-30T10:59:56;92493.84;;;8.93;51.38
53300;BME280;39187;48.476;8.310;2024-01-30T11:02:23;92497.31;;;9.04;51.18
53300;BME280;39187;48.476;8.310;2024-01-30T11:04:50;92488.41;;;8.71;52.10
53300;BME280;39187;48.476;8.310;2024-01-30T11:07:25;92483.91;;;8.79;52.21
53300;BME280;39187;48.476;8.310;2024-01-30T11:09:51;92475.38;;;9.17;51.39
53300;BME280;39187;48.476;8.310;2024-01-30T11:12:24;92476.03;;;8.93;51.56
53300;BME280;39187;48.476;8.310;2024-01-30T11:15:07;92478.31;;;8.95;51.90
53300;BME280;39187;48.476;8.310;2024-01-30T11:17:43;92473.28;;;8.79;52.19
53300;BME280;39187;48.476;8.310;2024-01-30T11:20:15;92470.91;;;8.60;52.46
53300;BME280;39187;48.476;8.310;2024-01-30T11:22:51;92468.94;;;8.50;53.02
53300;BME280;39187;48.476;8.310;2024-01-30T11:25:19;92464.13;;;8.66;53.11
53300;BME280;39187;48.476;8.310;2024-01-30T11:27:46;92464.22;;;8.80;52.71
53300;BME280;39187;48.476;8.310;2024-01-30T11:30:31;92459.34;;;8.96;52.83
53300;BME280;39187;48.476;8.310;2024-01-30T11:33:11;92460.19;;;9.11;52.44
53300;BME280;39187;48.476;8.310;2024-01-30T11:35:41;92463.84;;;8.81;53.73
53300;BME280;39187;48.476;8.310;2024-01-30T11:38:08;92456.66;;;8.82;53.65
53300;BME280;39187;48.476;8.310;2024-01-30T11:40:35;92462.75;;;8.93;54.25
53300;BME280;39187;48.476;8.310;2024-01-30T11:43:02;92466.06;;;8.72;55.03
53300;BME280;39187;48.476;8.310;2024-01-30T11:45:30;92457.00;;;8.80;54.97
53300;BME280;39187;48.476;8.310;2024-01-30T11:47:57;92459.81;;;9.12;53.72
53300;BME280;39187;48.476;8.310;2024-01-30T11:50:23;92463.19;;;9.06;54.41
53300;BME280;39187;48.476;8.310;2024-01-30T11:52:50;92466.09;;;8.76;55.44
53300;BME280;39187;48.476;8.310;2024-01-30T11:55:15;92461.56;;;8.83;55.67
53300;BME280;39187;48.476;8.310;2024-01-30T11:57:41;92469.44;;;8.66;55.96
53300;BME280;39187;48.476;8.310;2024-01-30T12:00:14;92471.13;;;8.95;56.02
53300;BME280;39187;48.476;8.310;2024-01-30T12:02:41;92464.25;;;8.91;56.84
53300;BME280;39187;48.476;8.310;2024-01-30T12:05:07;92465.84;;;9.02;56.23
53300;BME280;39187;48.476;8.310;2024-01-30T12:07:33;92461.41;;;9.35;55.37
53300;BME280;39187;48.476;8.310;2024-01-30T12:09:59;92469.28;;;9.06;56.34
53300;BME280;39187;48.476;8.310;2024-01-30T12:12:28;92462.88;;;9.14;56.35
53300;BME280;39187;48.476;8.310;2024-01-30T12:14:56;92460.22;;;9.14;55.88
53300;BME280;39187;48.476;8.310;2024-01-30T12:20:10;92456.13;;;9.42;56.13
53300;BME280;39187;48.476;8.310;2024-01-30T12:22:43;92452.69;;;9.34;56.37
53300;BME280;39187;48.476;8.310;2024-01-30T12:25:11;92448.88;;;9.28;57.41
53300;BME280;39187;48.476;8.310;2024-01-30T12:27:37;92452.25;;;9.18;57.98
53300;BME280;39187;48.476;8.310;2024-01-30T12:30:07;92452.75;;;9.52;56.59
53300;BME280;39187;48.476;8.310;2024-01-30T12:32:40;92453.50;;;9.49;56.94
53300;BME280;39187;48.476;8.310;2024-01-30T12:35:17;92455.66;;;9.18;57.95
53300;BME280;39187;48.476;8.310;2024-01-30T12:37:43;92454.59;;;9.37;58.08
53300;BME280;39187;48.476;8.310;2024-01-30T12:40:10;92456.09;;;9.35;58.93
53300;BME280;39187;48.476;8.310;2024-01-30T12:42:37;92461.09;;;9.50;58.51
53300;BME280;39187;48.476;8.310;2024-01-30T12:45:03;92455.34;;;9.38;59.12
53300;BME280;39187;48.476;8.310;2024-01-30T12:47:29;92454.09;;;9.10;60.40
53300;BME280;39187;48.476;8.310;2024-01-30T12:49:55;92438.59;;;9.19;60.09
53300;BME280;39187;48.476;8.310;2024-01-30T12:52:21;92448.97;;;9.63;59.18
53300;BME280;39187;48.476;8.310;2024-01-30T12:54:50;92455.03;;;9.60;59.78
53300;BME280;39187;48.476;8.310;2024-01-30T12:57:17;92448.22;;;9.59;59.64
53300;BME280;39187;48.476;8.310;2024-01-30T12:59:46;92459.91;;;9.34;61.23
53300;BME280;39187;48.476;8.310;2024-01-30T13:02:12;92458.69;;;9.13;62.38
53300;BME280;39187;48.476;8.310;2024-01-30T13:04:38;92464.84;;;9.39;61.38
53300;BME280;39187;48.476;8.310;2024-01-30T13:07:04;92458.25;;;9.04;63.30
53300;BME280;39187;48.476;8.310;2024-01-30T13:09:30;92457.53;;;9.07;63.65